sensor_id;sensor_type;location;lat;lon;timestamp;pressure;altitude;pressure_sealevel;temperature;humidity
9225;BME280;4647;48.072;11.616;2023-01-26T00:00:06;95613.09;;;-1.17;87.41
9225;BME280;4647;48.072;11.616;2023-01-26T00:02:35;95611.06;;;-1.20;86.84
9225;BME280;4647;48.072;11.616;2023-01-26T00:05:07;95601.16;;;-1.32;86.60
9225;BME280;4647;48.072;11.616;2023-01-26T00:07:36;95600.63;;;-1.26;86.55
9225;BME280;4647;48.072;11.616;2023-01-26T00:10:08;95601.69;;;-1.39;87.60
9225;BME280;4647;48.072;11.616;2023-01-26T00:12:39;95599.75;;;-1.30;87.34
9225;BME280;4647;48.072;11.616;2023-01-26T00:15:08;95600.34;;;-0.91;85.25
9225;BME280;4647;48.072;11.616;2023-01-26T00:17:36;95591.84;;;-1.17;85.93
9225;BME280;4647;48.072;11.616;2023-01-26T00:20:06;95595.13;;;-1.20;86.25
9225;BME280;4647;48.072;11.616;2023-01-26T00:22:35;95580.16;;;-1.25;85.89
9225;BME280;4647;48.072;11.616;2023-01-26T00:25:04;95583.34;;;-1.32;86.67
9225;BME280;4647;48.072;11.616;2023-01-26T00:27:33;95587.09;;;-1.33;87.02
9225;BME280;4647;48.072;11.616;2023-01-26T00:30:05;95586.91;;;-1.28;87.12
9225;BME280;4647;48.072;11.616;2023-01-26T00:32:34;95578.03;;;-1.32;87.03
9225;BME280;4647;48.072;11.616;2023-01-26T00:35:04;95581.66;;;-1.36;86.82
9225;BME280;4647;48.072;11.616;2023-01-26T00:37:35;95574.06;;;-1.26;86.69
9225;BME280;4647;48.072;11.616;2023-01-26T00:40:04;95578.28;;;-1.25;86.65
9225;BME280;4647;48.072;11.616;2023-01-26T00:42:33;95579.38;;;-1.26;87.11
9225;BME280;4647;48.072;11.616;2023-01-26T00:45:06;95575.16;;;-1.27;86.67
9225;BME280;4647;48.072;11.616;2023-01-26T00:47:34;95574.47;;;-1.36;86.78
9225;BME280;4647;48.072;11.616;2023-01-26T00:50:04;95572.06;;;-1.29;86.42
9225;BME280;4647;48.072;11.616;2023-01-26T00:52:33;95577.34;;;-1.41;86.70
9225;BME280;4647;48.072;11.616;2023-01-26T00:55:01;95569.38;;;-1.41;86.57
9225;BME280;4647;48.072;11.616;2023-01-26T00:57:30;95561.97;;;-1.35;87.15
9225;BME280;4647;48.072;11.616;2023-01-26T00:59:59;95565.72;;;-1.36;86.66
9225;BME280;4647;48.072;11.616;2023-01-26T01:02:30;95561.31;;;-1.32;86.56
9225;BME280;4647;48.072;11.616;2023-01-26T01:04:59;95564.53;;;-1.27;86.35
9225;BME280;4647;48.072;11.616;2023-01-26T01:07:27;95561.88;;;-1.27;86.46
9225;BME280;4647;48.072;11.616;2023-01-26T01:09:56;95558.34;;;-1.18;86.05
9225;BME280;4647;48.072;11.616;2023-01-26T01:12:25;95560.31;;;-1.28;86.38
9225;BME280;4647;48.072;11.616;2023-01-26T01:14:54;95559.03;;;-1.42;86.34
9225;BME280;4647;48.072;11.616;2023-01-26T01:17:23;95563.31;;;-1.50;86.82
9225;BME280;4647;48.072;11.616;2023-01-26T01:19:54;95559.13;;;-1.51;86.92
9225;BME280;4647;48.072;11.616;2023-01-26T01:22:23;95563.78;;;-1.48;86.85
9225;BME280;4647;48.072;11.616;2023-01-26T01:24:51;95561.25;;;-1.44;87.18
9225;BME280;4647;48.072;11.616;2023-01-26T01:27:20;95567.22;;;-1.47;87.37
9225;BME280;4647;48.072;11.616;2023-01-26T01:29:49;95559.63;;;-1.37;86.54
9225;BME280;4647;48.072;11.616;2023-01-26T01:32:19;95554.97;;;-1.40;86.28
9225;BME280;4647;48.072;11.616;2023-01-26T01:34:48;95555.94;;;-1.44;87.18
9225;BME280;4647;48.072;11.616;2023-01-26T01:37:20;95557.09;;;-1.54;87.09
9225;BME280;4647;48.072;11.616;2023-01-26T01:39:48;95552.03;;;-1.47;87.58
9225;BME280;4647;48.072;11.616;2023-01-26T01:42:17;95554.44;;;-1.54;87.66
9225;BME280;4647;48.072;11.616;2023-01-26T01:45:26;95557.47;;;-1.43;87.39
9225;BME280;4647;48.072;11.616;2023-01-26T01:48:03;95556.91;;;-1.49;87.65
9225;BME280;4647;48.072;11.616;2023-01-26T01:50:36;95555.75;;;-1.60;87.87
9225;BME280;4647;48.072;11.616;2023-01-26T01:53:13;95553.88;;;-1.60;87.67
9225;BME280;4647;48.072;11.616;2023-01-26T01:55:51;95561.13;;;-1.48;87.47
9225;BME280;4647;48.072;11.616;2023-01-26T01:58:21;95551.22;;;-1.39;86.94
9225;BME280;4647;48.072;11.616;2023-01-26T02:00:49;95548.03;;;-1.53;87.69
9225;BME280;4647;48.072;11.616;2023-01-26T02:03:18;95555.16;;;-1.45;87.66
9225;BME280;4647;48.072;11.616;2023-01-26T02:05:54;95550.22;;;-1.34;86.51
9225;BME280;4647;48.072;11.616;2023-01-26T02:08:30;95546.78;;;-1.35;86.80
9225;BME280;4647;48.072;11.616;2023-01-26T02:11:05;95541.59;;;-1.31;86.13
9225;BME280;4647;48.072;11.616;2023-01-26T02:13:36;95538.84;;;-1.23;86.57
9225;BME280;4647;48.072;11.616;2023-01-26T02:16:05;95538.81;;;-1.35;86.39
9225;BME280;4647;48.072;11.616;2023-01-26T02:18:34;95541.25;;;-1.42;86.56
9225;BME280;4647;48.072;11.616;2023-01-26T02:21:05;95538.25;;;-1.40;86.46
9225;BME280;4647;48.072;11.616;2023-01-26T02:23:45;95536.41;;;-1.28;85.84
9225;BME280;4647;48.072;11.616;2023-01-26T02:26:21;95533.13;;;-1.45;86.04
9225;BME280;4647;48.072;11.616;2023-01-26T02:28:51;95524.19;;;-1.41;86.18
9225;BME280;4647;48.072;11.616;2023-01-26T02:31:21;95524.31;;;-1.37;85.99
9225;BME280;4647;48.072;11.616;2023-01-26T02:33:51;95511.75;;;-1.49;86.00
9225;BME280;4647;48.072;11.616;2023-01-26T02:36:21;95513.28;;;-1.48;86.42
9225;BME280;4647;48.072;11.616;2023-01-26T02:38:57;95506.53;;;-1.45;85.94
9225;BME280;4647;48.072;11.616;2023-01-26T02:41:30;95507.53;;;-1.50;86.00
9225;BME280;4647;48.072;11.616;2023-01-26T02:44:12;95504.47;;;-1.40;86.08
9225;BME280;4647;48.072;11.616;2023-01-26T02:46:41;95495.59;;;-1.44;86.07
9225;BME280;4647;48.072;11.616;2023-01-26T02:49:10;95494.66;;;-1.27;85.58
9225;BME280;4647;48.072;11.616;2023-01-26T02:51:51;95493.09;;;-1.28;85.61
9225;BME280;4647;48.072;11.616;2023-01-26T02:54:20;95488.88;;;-1.41;86.29
9225;BME280;4647;48.072;11.616;2023-01-26T02:57:04;95489.31;;;-1.39;85.89
9225;BME280;4647;48.072;11.616;2023-01-26T02:59:33;95490.53;;;-1.37;85.75
9225;BME280;4647;48.072;11.616;2023-01-26T03:02:02;95487.00;;;-1.29;85.47
9225;BME280;4647;48.072;11.616;2023-01-26T03:04:30;95475.59;;;-1.41;85.64
9225;BME280;4647;48.072;11.616;2023-01-26T03:06:59;95474.94;;;-1.38;85.69
9225;BME280;4647;48.072;11.616;2023-01-26T03:09:28;95481.06;;;-1.59;86.35
9225;BME280;4647;48.072;11.616;2023-01-26T03:11:56;95472.34;;;-1.47;86.43
9225;BME280;4647;48.072;11.616;2023-01-26T03:14:29;95469.94;;;-1.40;86.39
9225;BME280;4647;48.072;11.616;2023-01-26T03:16:58;95468.28;;;-1.32;85.79
9225;BME280;4647;48.072;11.616;2023-01-26T03:19:28;95470.72;;;-1.27;85.76
9225;BME280;4647;48.072;11.616;2023-01-26T03:22:10;95466.94;;;-1.38;85.34
9225;BME280;4647;48.072;11.616;2023-01-26T03:24:51;95467.72;;;-1.38;85.54
9225;BME280;4647;48.072;11.616;2023-01-26T03:27:37;95468.72;;;-1.30;85.69
9225;BME280;4647;48.072;11.616;2023-01-26T03:30:09;95462.88;;;-1.24;86.26
9225;BME280;4647;48.072;11.616;2023-01-26T03:32:39;95460.69;;;-1.09;85.31
9225;BME280;4647;48.072;11.616;2023-01-26T03:35:12;95463.97;;;-1.25;85.58
9225;BME280;4647;48.072;11.616;2023-01-26T03:37:48;95460.44;;;-1.29;86.01
9225;BME280;4647;48.072;11.616;2023-01-26T03:40:23;95462.75;;;-1.27;85.44
9225;BME280;4647;48.072;11.616;2023-01-26T03:43:08;95461.78;;;-1.23;85.56
9225;BME280;4647;48.072;11.616;2023-01-26T03:45:51;95463.69;;;-1.11;84.75
9225;BME280;4647;48.072;11.616;2023-01-26T03:48:33;95468.63;;;-1.21;84.76
9225;BME280;4647;48.072;11.616;2023-01-26T03:51:15;95459.31;;;-1.40;85.33
9225;BME280;4647;48.072;11.616;2023-01-26T03:53:57;95465.00;;;-1.17;84.38
9225;BME280;4647;48.072;11.616;2023-01-26T03:56:38;95458.34;;;-1.23;84.54
9225;BME280;4647;48.072;11.616;2023-01-26T03:59:12;95453.34;;;-1.25;84.62
9225;BME280;4647;48.072;11.616;2023-01-26T04:01:46;95459.94;;;-1.43;85.55
9225;BME280;4647;48.072;11.616;2023-01-26T04:04:27;95461.44;;;-1.33;85.35
9225;BME280;4647;48.072;11.616;2023-01-26T04:07:08;95458.22;;;-1.27;84.80
9225;BME280;4647;48.072;11.616;2023-01-26T04:09:49;95456.78;;;-1.24;84.87
9225;BME280;4647;48.072;11.616;2023-01-26T04:12:17;95456.00;;;-1.37;84.16
9225;BME280;4647;48.072;11.616;2023-01-26T04:15:01;95462.53;;;-1.67;85.37
9225;BME280;4647;48.072;11.616;2023-01-26T04:17:45;95462.06;;;-1.69;85.68
9225;BME280;4647;48.072;11.616;2023-01-26T04:20:27;95451.06;;;-1.47;85.33
9225;BME280;4647;48.072;11.616;2023-01-26T04:23:16;95456.50;;;-1.43;85.37
9225;BME280;4647;48.072;11.616;2023-01-26T04:25:46;95449.97;;;-1.46;85.63
9225;BME280;4647;48.072;11.616;2023-01-26T04:28:15;95444.22;;;-1.48;85.12
9225;BME280;4647;48.072;11.616;2023-01-26T04:30:45;95437.28;;;-1.73;85.56
9225;BME280;4647;48.072;11.616;2023-01-26T04:33:17;95442.75;;;-1.58;86.02
9225;BME280;4647;48.072;11.616;2023-01-26T04:35:46;95445.41;;;-1.58;85.37
9225;BME280;4647;48.072;11.616;2023-01-26T04:38:16;95438.25;;;-1.45;85.42
9225;BME280;4647;48.072;11.616;2023-01-26T04:40:52;95439.38;;;-1.34;84.68
9225;BME280;4647;48.072;11.616;2023-01-26T04:43:21;95429.16;;;-1.44;84.34
9225;BME280;4647;48.072;11.616;2023-01-26T04:45:57;95440.25;;;-1.42;84.17
9225;BME280;4647;48.072;11.616;2023-01-26T04:48:30;95441.34;;;-1.43;84.07
9225;BME280;4647;48.072;11.616;2023-01-26T04:51:01;95440.00;;;-1.49;84.10
9225;BME280;4647;48.072;11.616;2023-01-26T04:53:31;95435.91;;;-1.46;84.30
9225;BME280;4647;48.072;11.616;2023-01-26T04:56:00;95426.50;;;-1.44;84.18
9225;BME280;4647;48.072;11.616;2023-01-26T04:58:29;95436.13;;;-1.51;84.46
9225;BME280;4647;48.072;11.616;2023-01-26T05:00:58;95437.59;;;-1.42;84.18
9225;BME280;4647;48.072;11.616;2023-01-26T05:03:26;95437.13;;;-1.56;84.69
9225;BME280;4647;48.072;11.616;2023-01-26T05:05:58;95440.31;;;-1.63;85.25
9225;BME280;4647;48.072;11.616;2023-01-26T05:08:28;95449.66;;;-1.44;84.86
9225;BME280;4647;48.072;11.616;2023-01-26T05:10:56;95447.75;;;-1.56;84.95
9225;BME280;4647;48.072;11.616;2023-01-26T05:13:53;95441.97;;;-1.58;84.48
9225;BME280;4647;48.072;11.616;2023-01-26T05:16:35;95441.78;;;-1.53;84.51
9225;BME280;4647;48.072;11.616;2023-01-26T05:19:19;95438.22;;;-1.57;84.78
9225;BME280;4647;48.072;11.616;2023-01-26T05:22:07;95442.06;;;-1.67;85.34
9225;BME280;4647;48.072;11.616;2023-01-26T05:24:37;95444.31;;;-1.57;84.95
9225;BME280;4647;48.072;11.616;2023-01-26T05:27:22;95444.44;;;-1.53;84.88
9225;BME280;4647;48.072;11.616;2023-01-26T05:29:56;95434.47;;;-1.56;84.94
9225;BME280;4647;48.072;11.616;2023-01-26T05:32:26;95437.88;;;-1.56;84.73
9225;BME280;4647;48.072;11.616;2023-01-26T05:34:55;95433.69;;;-1.57;84.71
9225;BME280;4647;48.072;11.616;2023-01-26T05:37:27;95436.09;;;-1.64;84.95
9225;BME280;4647;48.072;11.616;2023-01-26T05:39:57;95440.22;;;-1.54;85.07
9225;BME280;4647;48.072;11.616;2023-01-26T05:42:26;95438.13;;;-1.48;84.66
9225;BME280;4647;48.072;11.616;2023-01-26T05:45:17;95431.59;;;-1.51;84.89
9225;BME280;4647;48.072;11.616;2023-01-26T05:47:48;95428.03;;;-1.55;84.94
9225;BME280;4647;48.072;11.616;2023-01-26T05:50:17;95435.78;;;-1.62;85.30
9225;BME280;4647;48.072;11.616;2023-01-26T05:53:09;95438.00;;;-1.64;84.89
9225;BME280;4647;48.072;11.616;2023-01-26T05:55:38;95440.88;;;-1.57;84.44
9225;BME280;4647;48.072;11.616;2023-01-26T05:58:06;95446.66;;;-1.43;83.39
9225;BME280;4647;48.072;11.616;2023-01-26T06:00:35;95448.41;;;-1.59;83.28
9225;BME280;4647;48.072;11.616;2023-01-26T06:03:09;95439.22;;;-1.62;83.29
9225;BME280;4647;48.072;11.616;2023-01-26T06:05:38;95447.06;;;-1.65;83.30
9225;BME280;4647;48.072;11.616;2023-01-26T06:08:17;95453.72;;;-1.59;84.14
9225;BME280;4647;48.072;11.616;2023-01-26T06:11:06;95442.81;;;-1.66;84.79
9225;BME280;4647;48.072;11.616;2023-01-26T06:13:43;95447.28;;;-1.58;85.12
9225;BME280;4647;48.072;11.616;2023-01-26T06:16:19;95448.09;;;-1.45;85.23
9225;BME280;4647;48.072;11.616;2023-01-26T06:18:48;95449.63;;;-1.57;85.48
9225;BME280;4647;48.072;11.616;2023-01-26T06:21:17;95443.22;;;-1.56;85.19
9225;BME280;4647;48.072;11.616;2023-01-26T06:23:48;95442.44;;;-1.56;84.99
9225;BME280;4647;48.072;11.616;2023-01-26T06:26:17;95441.47;;;-1.72;85.71
9225;BME280;4647;48.072;11.616;2023-01-26T06:28:46;95456.75;;;-1.69;85.18
9225;BME280;4647;48.072;11.616;2023-01-26T06:31:16;95450.63;;;-1.61;84.91
9225;BME280;4647;48.072;11.616;2023-01-26T06:33:46;95458.41;;;-1.77;85.49
9225;BME280;4647;48.072;11.616;2023-01-26T06:36:14;95455.53;;;-1.72;85.36
9225;BME280;4647;48.072;11.616;2023-01-26T06:38:49;95439.78;;;-1.56;84.79
9225;BME280;4647;48.072;11.616;2023-01-26T06:41:18;95444.63;;;-1.58;85.00
9225;BME280;4647;48.072;11.616;2023-01-26T06:43:49;95451.06;;;-1.47;84.48
9225;BME280;4647;48.072;11.616;2023-01-26T06:46:18;95445.25;;;-1.40;84.46
9225;BME280;4647;48.072;11.616;2023-01-26T06:48:48;95443.31;;;-1.52;84.30
9225;BME280;4647;48.072;11.616;2023-01-26T06:51:42;95446.84;;;-1.60;84.54
9225;BME280;4647;48.072;11.616;2023-01-26T06:54:15;95445.81;;;-1.35;83.72
9225;BME280;4647;48.072;11.616;2023-01-26T06:56:59;95439.66;;;-1.60;83.15
9225;BME280;4647;48.072;11.616;2023-01-26T06:59:46;95435.81;;;-1.50;83.01
9225;BME280;4647;48.072;11.616;2023-01-26T07:02:33;95438.47;;;-1.50;82.60
9225;BME280;4647;48.072;11.616;2023-01-26T07:05:02;95433.06;;;-1.41;82.23
9225;BME280;4647;48.072;11.616;2023-01-26T07:07:30;95432.84;;;-1.36;82.32
9225;BME280;4647;48.072;11.616;2023-01-26T07:10:02;95432.53;;;-1.68;82.91
9225;BME280;4647;48.072;11.616;2023-01-26T07:12:38;95432.78;;;-1.61;83.06
9225;BME280;4647;48.072;11.616;2023-01-26T07:15:08;95436.25;;;-1.48;83.21
9225;BME280;4647;48.072;11.616;2023-01-26T07:17:38;95433.25;;;-1.59;82.65
9225;BME280;4647;48.072;11.616;2023-01-26T07:20:08;95434.16;;;-1.42;82.23
9225;BME280;4647;48.072;11.616;2023-01-26T07:22:37;95440.72;;;-1.28;81.98
9225;BME280;4647;48.072;11.616;2023-01-26T07:25:08;95437.34;;;-1.49;81.89
9225;BME280;4647;48.072;11.616;2023-01-26T07:27:37;95439.78;;;-1.44;82.27
9225;BME280;4647;48.072;11.616;2023-01-26T07:30:06;95445.16;;;-1.32;81.88
9225;BME280;4647;48.072;11.616;2023-01-26T07:32:36;95434.06;;;-1.34;81.56
9225;BME280;4647;48.072;11.616;2023-01-26T07:35:06;95439.47;;;-1.42;82.09
9225;BME280;4647;48.072;11.616;2023-01-26T07:37:35;95432.28;;;-1.42;81.84
9225;BME280;4647;48.072;11.616;2023-01-26T07:40:05;95432.28;;;-1.42;81.53
9225;BME280;4647;48.072;11.616;2023-01-26T07:42:36;95434.25;;;-1.51;82.12
9225;BME280;4647;48.072;11.616;2023-01-26T07:45:43;95436.69;;;-1.46;81.89
9225;BME280;4647;48.072;11.616;2023-01-26T07:48:11;95432.81;;;-1.48;81.99
9225;BME280;4647;48.072;11.616;2023-01-26T07:50:41;95430.09;;;-1.28;81.69
9225;BME280;4647;48.072;11.616;2023-01-26T07:53:09;95424.22;;;-1.33;81.73
9225;BME280;4647;48.072;11.616;2023-01-26T07:55:39;95426.53;;;-1.32;81.64
9225;BME280;4647;48.072;11.616;2023-01-26T07:58:11;95426.97;;;-1.42;81.96
9225;BME280;4647;48.072;11.616;2023-01-26T08:00:40;95426.97;;;-1.42;81.93
9225;BME280;4647;48.072;11.616;2023-01-26T08:03:11;95423.84;;;-1.44;81.87
9225;BME280;4647;48.072;11.616;2023-01-26T08:05:40;95426.97;;;-1.42;82.43
9225;BME280;4647;48.072;11.616;2023-01-26T08:08:09;95419.47;;;-1.28;81.98
9225;BME280;4647;48.072;11.616;2023-01-26T08:10:37;95418.78;;;-1.37;81.63
9225;BME280;4647;48.072;11.616;2023-01-26T08:13:06;95425.88;;;-1.29;81.18
9225;BME280;4647;48.072;11.616;2023-01-26T08:15:37;95417.13;;;-1.29;81.20
9225;BME280;4647;48.072;11.616;2023-01-26T08:18:05;95416.91;;;-1.36;81.40
9225;BME280;4647;48.072;11.616;2023-01-26T08:20:34;95413.88;;;-1.47;81.34
9225;BME280;4647;48.072;11.616;2023-01-26T08:23:02;95405.06;;;-1.27;80.92
9225;BME280;4647;48.072;11.616;2023-01-26T08:25:31;95409.63;;;-1.15;80.58
9225;BME280;4647;48.072;11.616;2023-01-26T08:28:00;95407.09;;;-1.11;80.39
9225;BME280;4647;48.072;11.616;2023-01-26T08:30:28;95407.94;;;-1.19;79.63
9225;BME280;4647;48.072;11.616;2023-01-26T08:32:59;95400.22;;;-1.00;79.66
9225;BME280;4647;48.072;11.616;2023-01-26T08:35:29;95407.41;;;-1.01;79.70
9225;BME280;4647;48.072;11.616;2023-01-26T08:37:58;95401.66;;;-1.15;79.49
9225;BME280;4647;48.072;11.616;2023-01-26T08:40:27;95404.44;;;-1.11;79.38
9225;BME280;4647;48.072;11.616;2023-01-26T08:42:59;95403.97;;;-1.01;79.61
9225;BME280;4647;48.072;11.616;2023-01-26T08:45:28;95405.31;;;-1.07;79.52
9225;BME280;4647;48.072;11.616;2023-01-26T08:48:00;95400.88;;;-1.15;79.26
9225;BME280;4647;48.072;11.616;2023-01-26T08:50:29;95401.97;;;-1.29;80.12
9225;BME280;4647;48.072;11.616;2023-01-26T08:52:58;95412.38;;;-1.24;80.21
9225;BME280;4647;48.072;11.616;2023-01-26T08:55:26;95408.63;;;-1.10;79.36
9225;BME280;4647;48.072;11.616;2023-01-26T08:57:57;95412.47;;;-1.20;79.24
9225;BME280;4647;48.072;11.616;2023-01-26T09:00:26;95416.38;;;-1.05;78.58
9225;BME280;4647;48.072;11.616;2023-01-26T09:03:01;95408.19;;;-1.12;77.77
9225;BME280;4647;48.072;11.616;2023-01-26T09:05:31;95407.94;;;-1.19;78.98
9225;BME280;4647;48.072;11.616;2023-01-26T09:08:01;95406.66;;;-1.13;78.80
9225;BME280;4647;48.072;11.616;2023-01-26T09:10:30;95403.75;;;-1.08;78.55
9225;BME280;4647;48.072;11.616;2023-01-26T09:12:59;95410.63;;;-1.07;78.32
9225;BME280;4647;48.072;11.616;2023-01-26T09:15:28;95406.53;;;-1.05;78.42
9225;BME280;4647;48.072;11.616;2023-01-26T09:17:56;95411.72;;;-0.96;78.06
9225;BME280;4647;48.072;11.616;2023-01-26T09:20:27;95407.50;;;-1.21;78.70
9225;BME280;4647;48.072;11.616;2023-01-26T09:22:56;95407.97;;;-0.95;78.24
9225;BME280;4647;48.072;11.616;2023-01-26T09:25:25;95400.44;;;-1.17;78.34
9225;BME280;4647;48.072;11.616;2023-01-26T09:27:54;95410.41;;;-1.14;78.15
9225;BME280;4647;48.072;11.616;2023-01-26T09:30:23;95407.84;;;-1.11;79.03
9225;BME280;4647;48.072;11.616;2023-01-26T09:32:51;95407.53;;;-1.09;78.46
9225;BME280;4647;48.072;11.616;2023-01-26T09:35:28;95404.19;;;-1.18;78.54
9225;BME280;4647;48.072;11.616;2023-01-26T09:37:56;95415.63;;;-1.18;78.67
9225;BME280;4647;48.072;11.616;2023-01-26T09:40:32;95408.97;;;-1.00;78.21
9225;BME280;4647;48.072;11.616;2023-01-26T09:43:11;95417.59;;;-1.03;78.02
9225;BME280;4647;48.072;11.616;2023-01-26T09:45:50;95412.19;;;-1.06;78.28
9225;BME280;4647;48.072;11.616;2023-01-26T09:48:30;95418.41;;;-0.90;78.35
9225;BME280;4647;48.072;11.616;2023-01-26T09:51:08;95427.81;;;-0.93;78.13
9225;BME280;4647;48.072;11.616;2023-01-26T09:53:46;95421.81;;;-0.89;78.10
9225;BME280;4647;48.072;11.616;2023-01-26T09:56:17;95417.06;;;-0.84;77.87
9225;BME280;4647;48.072;11.616;2023-01-26T09:58:50;95411.28;;;-0.98;78.33
9225;BME280;4647;48.072;11.616;2023-01-26T10:01:28;95403.09;;;-1.05;79.06
9225;BME280;4647;48.072;11.616;2023-01-26T10:04:03;95407.84;;;-0.99;78.74
9225;BME280;4647;48.072;11.616;2023-01-26T10:06:40;95399.69;;;-0.94;78.78
9225;BME280;4647;48.072;11.616;2023-01-26T10:09:22;95403.09;;;-0.93;78.50
9225;BME280;4647;48.072;11.616;2023-01-26T10:11:53;95404.66;;;-1.16;79.08
9225;BME280;4647;48.072;11.616;2023-01-26T10:14:30;95409.19;;;-1.05;78.93
9225;BME280;4647;48.072;11.616;2023-01-26T10:17:03;95402.44;;;-1.02;78.52
9225;BME280;4647;48.072;11.616;2023-01-26T10:19:34;95401.53;;;-0.82;77.70
9225;BME280;4647;48.072;11.616;2023-01-26T10:22:12;95400.53;;;-1.02;78.42
9225;BME280;4647;48.072;11.616;2023-01-26T10:24:46;95404.31;;;-0.90;78.15
9225;BME280;4647;48.072;11.616;2023-01-26T10:27:16;95399.19;;;-0.96;78.05
9225;BME280;4647;48.072;11.616;2023-01-26T10:29:45;95390.34;;;-1.12;78.29
9225;BME280;4647;48.072;11.616;2023-01-26T10:32:13;95391.91;;;-0.99;78.63
9225;BME280;4647;48.072;11.616;2023-01-26T10:34:45;95386.25;;;-0.85;77.91
9225;BME280;4647;48.072;11.616;2023-01-26T10:37:22;95379.72;;;-0.87;78.59
9225;BME280;4647;48.072;11.616;2023-01-26T10:39:59;95381.81;;;-0.81;78.06
9225;BME280;4647;48.072;11.616;2023-01-26T10:42:31;95378.59;;;-0.86;77.37
9225;BME280;4647;48.072;11.616;2023-01-26T10:45:01;95379.03;;;-0.72;77.49
9225;BME280;4647;48.072;11.616;2023-01-26T10:47:30;95379.72;;;-1.12;78.27
9225;BME280;4647;48.072;11.616;2023-01-26T10:50:19;95377.59;;;-1.18;79.06
9225;BME280;4647;48.072;11.616;2023-01-26T10:53:01;95382.03;;;-0.98;78.54
9225;BME280;4647;48.072;11.616;2023-01-26T10:55:31;95380.72;;;-0.92;78.48
9225;BME280;4647;48.072;11.616;2023-01-26T10:58:01;95380.72;;;-1.16;79.40
9225;BME280;4647;48.072;11.616;2023-01-26T11:00:32;95379.84;;;-1.08;79.84
9225;BME280;4647;48.072;11.616;2023-01-26T11:03:05;95369.53;;;-1.10;78.80
9225;BME280;4647;48.072;11.616;2023-01-26T11:05:43;95371.22;;;-0.53;77.07
9225;BME280;4647;48.072;11.616;2023-01-26T11:08:30;95372.06;;;-0.77;77.32
9225;BME280;4647;48.072;11.616;2023-01-26T11:11:00;95375.38;;;-0.68;77.38
9225;BME280;4647;48.072;11.616;2023-01-26T11:13:31;95366.59;;;-0.56;77.44
9225;BME280;4647;48.072;11.616;2023-01-26T11:16:02;95366.75;;;-1.01;78.54
9225;BME280;4647;48.072;11.616;2023-01-26T11:18:40;95372.19;;;-0.98;79.47
9225;BME280;4647;48.072;11.616;2023-01-26T11:21:13;95371.84;;;-1.08;79.50
9225;BME280;4647;48.072;11.616;2023-01-26T11:23:59;95371.84;;;-0.96;80.00
9225;BME280;4647;48.072;11.616;2023-01-26T11:26:49;95372.53;;;-0.87;79.23
9225;BME280;4647;48.072;11.616;2023-01-26T11:29:42;95363.41;;;-0.98;79.49
9225;BME280;4647;48.072;11.616;2023-01-26T11:32:18;95371.84;;;-0.96;79.53
9225;BME280;4647;48.072;11.616;2023-01-26T11:34:57;95366.19;;;-0.82;79.51
9225;BME280;4647;48.072;11.616;2023-01-26T11:37:41;95369.25;;;-0.44;77.53
9225;BME280;4647;48.072;11.616;2023-01-26T11:40:22;95371.50;;;-0.82;79.46
9225;BME280;4647;48.072;11.616;2023-01-26T11:43:05;95361.22;;;-0.84;79.36
9225;BME280;4647;48.072;11.616;2023-01-26T11:46:00;95366.31;;;-0.91;79.25
9225;BME280;4647;48.072;11.616;2023-01-26T11:48:37;95360.34;;;-0.48;77.80
9225;BME280;4647;48.072;11.616;2023-01-26T11:51:15;95356.63;;;-0.71;78.11
9225;BME280;4647;48.072;11.616;2023-01-26T11:54:11;95353.91;;;-0.99;79.75
9225;BME280;4647;48.072;11.616;2023-01-26T11:56:48;95353.53;;;-0.73;78.96
9225;BME280;4647;48.072;11.616;2023-01-26T11:59:24;95356.31;;;-0.70;78.43
9225;BME280;4647;48.072;11.616;2023-01-26T12:01:57;95357.00;;;-0.85;78.97
9225;BME280;4647;48.072;11.616;2023-01-26T12:04:31;95340.56;;;-0.75;78.55
9225;BME280;4647;48.072;11.616;2023-01-26T12:07:09;95347.28;;;-0.93;79.63
9225;BME280;4647;48.072;11.616;2023-01-26T12:09:41;95344.81;;;-0.86;79.44
9225;BME280;4647;48.072;11.616;2023-01-26T12:12:16;95343.69;;;-0.85;79.65
9225;BME280;4647;48.072;11.616;2023-01-26T12:14:51;95346.69;;;-0.86;79.27
9225;BME280;4647;48.072;11.616;2023-01-26T12:17:31;95333.97;;;-0.93;78.64
9225;BME280;4647;48.072;11.616;2023-01-26T12:20:18;95342.28;;;-0.95;79.30
9225;BME280;4647;48.072;11.616;2023-01-26T12:22:54;95333.75;;;-1.12;80.60
9225;BME280;4647;48.072;11.616;2023-01-26T12:25:29;95333.31;;;-1.14;80.17
9225;BME280;4647;48.072;11.616;2023-01-26T12:28:13;95337.47;;;-0.77;78.77
9225;BME280;4647;48.072;11.616;2023-01-26T12:30:49;95334.19;;;-0.98;79.34
9225;BME280;4647;48.072;11.616;2023-01-26T12:33:20;95321.66;;;-0.98;79.60
9225;BME280;4647;48.072;11.616;2023-01-26T12:36:14;95325.00;;;-1.25;79.94
9225;BME280;4647;48.072;11.616;2023-01-26T12:38:55;95325.22;;;-1.06;79.84
9225;BME280;4647;48.072;11.616;2023-01-26T12:41:38;95321.22;;;-1.00;79.45
9225;BME280;4647;48.072;11.616;2023-01-26T12:44:25;95331.22;;;-1.09;79.73
9225;BME280;4647;48.072;11.616;2023-01-26T12:47:04;95332.88;;;-1.16;79.64
9225;BME280;4647;48.072;11.616;2023-01-26T12:49:39;95321.91;;;-1.15;80.25
9225;BME280;4647;48.072;11.616;2023-01-26T12:52:15;95326.91;;;-1.13;79.65
9225;BME280;4647;48.072;11.616;2023-01-26T12:54:51;95323.44;;;-1.26;79.63
9225;BME280;4647;48.072;11.616;2023-01-26T12:57:26;95317.72;;;-1.16;79.41
9225;BME280;4647;48.072;11.616;2023-01-26T13:00:06;95327.56;;;-1.16;80.37
9225;BME280;4647;48.072;11.616;2023-01-26T13:02:45;95330.09;;;-1.20;80.45
9225;BME280;4647;48.072;11.616;2023-01-26T13:05:25;95333.28;;;-1.02;79.48
9225;BME280;4647;48.072;11.616;2023-01-26T13:07:54;95320.69;;;-1.30;80.79
9225;BME280;4647;48.072;11.616;2023-01-26T13:10:28;95321.47;;;-1.17;80.80
9225;BME280;4647;48.072;11.616;2023-01-26T13:13:27;95319.00;;;-1.22;80.32
9225;BME280;4647;48.072;11.616;2023-01-26T13:16:33;95319.31;;;-0.87;79.13
9225;BME280;4647;48.072;11.616;2023-01-26T13:19:02;95320.78;;;-0.89;79.40
9225;BME280;4647;48.072;11.616;2023-01-26T13:21:42;95322.19;;;-0.80;78.87
9225;BME280;4647;48.072;11.616;2023-01-26T13:24:42;95319.22;;;-0.90;79.03
9225;BME280;4647;48.072;11.616;2023-01-26T13:27:27;95309.75;;;-0.76;78.39
9225;BME280;4647;48.072;11.616;2023-01-26T13:30:00;95314.88;;;-0.83;77.66
9225;BME280;4647;48.072;11.616;2023-01-26T13:33:01;95317.78;;;-1.00;78.88
9225;BME280;4647;48.072;11.616;2023-01-26T13:35:32;95317.81;;;-1.12;80.28
9225;BME280;4647;48.072;11.616;2023-01-26T13:38:09;95309.25;;;-0.94;78.52
9225;BME280;4647;48.072;11.616;2023-01-26T13:40:41;95307.47;;;-0.89;79.23
9225;BME280;4647;48.072;11.616;2023-01-26T13:43:15;95316.56;;;-1.03;79.87
9225;BME280;4647;48.072;11.616;2023-01-26T13:45:56;95319.78;;;-1.09;80.25